HSSS

Khartoum International Airport

Khartoum, Sudan
TAF HSSS 231700Z 2318/2424 36015G25KT 6000
Issued Valid From Valid To
Apr-23 @ 17:00 UTC
(6 hours ago)
Apr-23 @ 18:00 UTC
(5 hours ago)
Apr-25 @ 00:00 UTC
(-1 days ago)
Apr-23 @ 18:00 to Apr-25 @ 00:00
TAF HSSS 231700Z 2318/2424 36015G25KT 6000
Wind Visibility
360° at 15 knots
 Gusting to 25 knots
6,003 meters
TAF HSSS 231700Z 2318/2424 36015G25KT 6000
Issued Apr-23 @ 17:00 UTC
(6 hours ago)
Valid From Apr-23 @ 18:00 UTC
(5 hours ago)
Valid To Apr-25 @ 00:00 UTC
(-1 days ago)
Apr-23 @ 18:00 - Apr-25 @ 00:00
Wind Visibility
360° at 15 knots
 Gusting to 25 knots
6,003 meters